Time;durP1;ratioP1;P1;durP2;ratioP2;P2;SDS_P1;SDS_P2;PMS_P1;PMS_P2;Temp;Humidity;BMP_temperature;BMP_pressure;BME280_temperature;BME280_humidity;BME280_pressure;Samples;Min_cycle;Max_cycle;Signal;HPM_P1;HPM_P2
2021/11/01 00:01:36;;;;;;;66.55;15.82;;;13.40;95.00;;;;;;5038076;28;20052;-61
2021/11/01 00:04:04;;;;;;;101.10;17.08;;;13.40;95.00;;;;;;5038783;28;20284;-61
2021/11/01 00:06:31;;;;;;;102.18;18.40;;;13.50;95.10;;;;;;5023839;28;20431;-61
2021/11/01 00:08:57;;;;;;;109.93;19.27;;;13.50;95.10;;;;;;5041336;28;20079;-61
2021/11/01 00:11:22;;;;;;;78.60;18.15;;;13.40;95.10;;;;;;5020121;28;20060;-61
2021/11/01 00:13:48;;;;;;;58.33;17.00;;;13.40;95.10;;;;;;5022973;28;20413;-61
2021/11/01 00:16:13;;;;;;;68.45;17.58;;;13.40;95.10;;;;;;5037894;28;20053;-61
2021/11/01 00:18:39;;;;;;;67.00;17.25;;;13.40;95.10;;;;;;5038697;28;20551;-61
2021/11/01 00:21:05;;;;;;;59.25;14.95;;;13.40;95.10;;;;;;5039550;28;20103;-61
2021/11/01 00:23:30;;;;;;;55.13;14.98;;;13.40;95.00;;;;;;5036798;28;20055;-61
2021/11/01 00:25:56;;;;;;;44.63;14.25;;;13.40;95.10;;;;;;5038089;28;20063;-61
2021/11/01 00:28:21;;;;;;;49.90;14.63;;;13.40;95.10;;;;;;5038572;28;20095;-61
2021/11/01 00:30:47;;;;;;;60.85;15.55;;;13.40;95.10;;;;;;5039550;28;20020;-61
2021/11/01 00:33:12;;;;;;;39.40;14.38;;;13.40;95.10;;;;;;5041197;28;20120;-61
2021/11/01 00:35:38;;;;;;;52.42;15.50;;;13.40;95.10;;;;;;5039914;28;20029;-61
2021/11/01 00:38:04;;;;;;;66.00;15.50;;;13.40;95.10;;;;;;5037604;28;20029;-61
2021/11/01 00:40:30;;;;;;;51.50;15.13;;;13.40;95.10;;;;;;5037641;28;20469;-61
2021/11/01 00:42:56;;;;;;;52.95;14.52;;;13.40;95.10;;;;;;5040167;28;20102;-61
2021/11/01 00:45:21;;;;;;;79.20;15.95;;;13.40;95.10;;;;;;5040421;28;20432;-61
2021/11/01 00:47:47;;;;;;;53.53;14.98;;;13.40;95.10;;;;;;5039946;28;20070;-61
2021/11/01 00:50:14;;;;;;;56.40;13.82;;;13.40;95.10;;;;;;5040814;28;20053;-61
2021/11/01 00:52:40;;;;;;;57.13;14.73;;;13.40;95.20;;;;;;5037427;28;20021;-61
2021/11/01 00:55:08;;;;;;;71.30;15.00;;;13.40;95.30;;;;;;5036219;28;20468;-61
2021/11/01 00:57:34;;;;;;;65.35;14.77;;;13.40;95.30;;;;;;5040400;28;20025;-61
2021/11/01 01:00:00;;;;;;;59.63;14.93;;;13.40;95.30;;;;;;5042287;28;20078;-61
2021/11/01 01:02:32;;;;;;;53.10;13.77;;;13.40;95.30;;;;;;5038033;28;20107;-61
2021/11/01 01:04:57;;;;;;;56.47;13.73;;;13.40;95.40;;;;;;5021170;28;20033;-61
2021/11/01 01:07:23;;;;;;;59.65;13.40;;;13.40;95.40;;;;;;5020021;28;20421;-61
2021/11/01 01:09:49;;;;;;;50.83;14.00;;;13.40;95.40;;;;;;5042213;28;20086;-61
2021/11/01 01:12:16;;;;;;;49.20;13.07;;;13.40;95.40;;;;;;5040526;28;20028;-61
2021/11/01 01:14:46;;;;;;;54.53;14.18;;;13.40;95.40;;;;;;5039226;28;20477;-61
2021/11/01 01:17:12;;;;;;;56.42;14.18;;;13.40;95.40;;;;;;5039028;28;20037;-61
2021/11/01 01:19:49;;;;;;;60.05;13.32;;;13.40;95.40;;;;;;5034178;28;20040;-62
2021/11/01 01:22:28;;;;;;;38.22;12.63;;;13.40;95.40;;;;;;5038273;28;20037;-61
2021/11/01 01:24:56;;;;;;;43.40;13.07;;;13.40;95.50;;;;;;5039754;28;20108;-61
2021/11/01 01:27:25;;;;;;;47.90;12.75;;;13.30;95.50;;;;;;5039102;28;20017;-60
2021/11/01 01:29:51;;;;;;;44.28;13.40;;;13.30;95.50;;;;;;5041383;28;20013;-62
2021/11/01 01:32:16;;;;;;;32.70;11.95;;;13.30;95.60;;;;;;5042279;28;20033;-61
2021/11/01 01:34:42;;;;;;;41.25;12.60;;;13.30;95.60;;;;;;5044296;28;20059;-61
2021/11/01 01:37:07;;;;;;;51.78;13.32;;;13.30;95.60;;;;;;5044699;28;20056;-61
2021/11/01 01:39:33;;;;;;;33.47;11.30;;;13.30;95.60;;;;;;5042890;28;20120;-61
2021/11/01 01:41:58;;;;;;;40.28;10.93;;;13.30;95.60;;;;;;5043712;28;20056;-62
2021/11/01 01:44:24;;;;;;;33.08;11.25;;;13.30;95.60;;;;;;5044442;28;20025;-61
2021/11/01 01:46:49;;;;;;;39.55;11.65;;;13.30;95.60;;;;;;5041881;28;20121;-61
2021/11/01 01:49:15;;;;;;;38.85;10.60;;;13.30;95.60;;;;;;5043168;28;20486;-61
2021/11/01 01:51:40;;;;;;;38.85;11.23;;;13.30;95.70;;;;;;5026133;28;20029;-61
2021/11/01 01:54:06;;;;;;;29.88;10.55;;;13.30;95.70;;;;;;5039350;28;20053;-61
2021/11/01 01:56:32;;;;;;;28.05;10.07;;;13.30;95.70;;;;;;5043006;28;20048;-61
2021/11/01 01:59:02;;;;;;;28.50;10.80;;;13.30;95.70;;;;;;5042507;28;20101;-61
2021/11/01 02:01:28;;;;;;;29.65;11.15;;;13.30;95.70;;;;;;5040272;28;20071;-61
2021/11/01 02:03:54;;;;;;;27.05;10.35;;;13.30;95.70;;;;;;5043788;28;20112;-61
2021/11/01 02:07:06;;;;;;;31.13;10.43;;;13.30;95.60;;;;;;5040755;28;20112;-61
2021/11/01 02:09:44;;;;;;;27.73;9.80;;;13.30;95.60;;;;;;5040140;28;20341;-61
2021/11/01 02:12:13;;;;;;;28.05;9.88;;;13.30;95.60;;;;;;5040647;28;20056;-61
2021/11/01 02:14:41;;;;;;;28.75;10.15;;;13.30;95.60;;;;;;5042668;28;20253;-61
2021/11/01 02:17:07;;;;;;;33.20;11.93;;;13.30;95.60;;;;;;5039507;28;20033;-61
2021/11/01 02:19:36;;;;;;;22.98;10.25;;;13.30;95.70;;;;;;5042810;28;20068;-61
2021/11/01 02:22:04;;;;;;;32.40;10.77;;;13.20;95.60;;;;;;5040022;28;20025;-61
2021/11/01 02:24:46;;;;;;;40.58;11.25;;;13.20;95.70;;;;;;5038434;28;20033;-61
2021/11/01 02:27:12;;;;;;;27.00;10.57;;;13.20;95.70;;;;;;5029848;28;20043;-61
2021/11/01 02:29:42;;;;;;;26.27;10.95;;;13.20;95.70;;;;;;5043293;28;20040;-61
2021/11/01 02:32:08;;;;;;;28.80;11.07;;;13.20;95.70;;;;;;5042631;28;20021;-62
2021/11/01 02:34:34;;;;;;;23.48;9.88;;;13.20;95.70;;;;;;5040667;28;20041;-61
2021/11/01 02:36:59;;;;;;;24.08;10.18;;;13.20;95.70;;;;;;5041213;28;20129;-60
2021/11/01 02:39:26;;;;;;;24.27;9.63;;;13.20;95.70;;;;;;5041076;28;20120;-61
2021/11/01 02:41:52;;;;;;;31.13;10.70;;;13.20;95.70;;;;;;5041623;28;20025;-61
2021/11/01 02:44:21;;;;;;;29.48;10.73;;;13.20;95.70;;;;;;5043420;28;20032;-61
2021/11/01 02:46:47;;;;;;;23.17;9.82;;;13.20;95.70;;;;;;5042409;28;20048;-61
2021/11/01 02:49:12;;;;;;;31.05;9.85;;;13.20;95.70;;;;;;5041376;28;20021;-61
2021/11/01 02:51:40;;;;;;;22.33;8.60;;;13.20;95.70;;;;;;5040940;28;20102;-61
2021/11/01 02:54:06;;;;;;;23.45;9.07;;;13.20;95.70;;;;;;5040928;28;20033;-61
2021/11/01 02:56:32;;;;;;;22.45;10.30;;;13.20;95.80;;;;;;5037814;28;20597;-61
2021/11/01 02:58:57;;;;;;;30.55;10.55;;;13.20;95.80;;;;;;5043030;28;20021;-61
2021/11/01 03:01:23;;;;;;;20.20;8.90;;;13.20;95.80;;;;;;5040082;28;20028;-61
2021/11/01 03:03:49;;;;;;;23.83;9.25;;;13.20;95.80;;;;;;5023862;28;20064;-61
2021/11/01 03:06:23;;;;;;;17.02;8.45;;;13.20;95.80;;;;;;5040287;28;20135;-61
2021/11/01 03:08:49;;;;;;;17.60;8.52;;;13.20;95.80;;;;;;5042996;28;20032;-61
2021/11/01 03:11:14;;;;;;;17.08;8.05;;;13.20;95.90;;;;;;5042186;28;20041;-61
2021/11/01 03:13:40;;;;;;;19.08;7.72;;;13.20;95.90;;;;;;5041100;28;20068;-61
2021/11/01 03:16:06;;;;;;;18.10;8.23;;;13.20;95.90;;;;;;5037464;28;20108;-61
2021/11/01 03:18:38;;;;;;;15.90;7.90;;;13.20;96.00;;;;;;5038990;28;20040;-61
2021/11/01 03:21:08;;;;;;;19.80;8.80;;;13.20;96.10;;;;;;5025895;28;20113;-61
2021/11/01 03:23:34;;;;;;;17.55;8.07;;;13.20;96.10;;;;;;5041007;28;20072;-61
2021/11/01 03:26:09;;;;;;;17.60;7.78;;;13.20;96.20;;;;;;5037920;28;20048;-60
2021/11/01 03:28:34;;;;;;;15.40;8.38;;;13.20;96.10;;;;;;5024286;28;20095;-61
2021/11/01 03:31:00;;;;;;;12.98;8.00;;;13.20;96.20;;;;;;5039112;28;20213;-61
2021/11/01 03:33:26;;;;;;;16.52;7.00;;;13.20;96.30;;;;;;5039506;28;20463;-61
2021/11/01 03:35:53;;;;;;;18.08;7.30;;;13.20;96.40;;;;;;5040945;28;20029;-61
2021/11/01 03:38:20;;;;;;;13.02;7.30;;;13.20;96.40;;;;;;5041621;28;20829;-61
2021/11/01 03:40:47;;;;;;;9.15;6.50;;;13.20;96.50;;;;;;5040226;28;20056;-61
2021/11/01 03:43:17;;;;;;;14.43;6.28;;;13.20;96.50;;;;;;5019046;28;20846;-61
2021/11/01 03:45:43;;;;;;;11.57;6.40;;;13.20;96.60;;;;;;5022111;28;20029;-61
2021/11/01 03:48:09;;;;;;;8.75;5.78;;;13.20;96.90;;;;;;5041308;28;20098;-61
2021/11/01 03:50:56;;;;;;;10.55;5.70;;;13.20;96.80;;;;;;5040713;28;20036;-61
2021/11/01 03:53:22;;;;;;;12.27;7.03;;;13.20;96.90;;;;;;5025526;28;20023;-61
2021/11/01 03:55:48;;;;;;;7.07;5.15;;;13.20;96.90;;;;;;5019497;28;20033;-61
2021/11/01 03:58:13;;;;;;;12.55;5.60;;;13.20;96.90;;;;;;5039435;28;20056;-61
2021/11/01 04:00:39;;;;;;;8.57;4.20;;;13.20;97.00;;;;;;5024299;28;20550;-61
2021/11/01 04:03:04;;;;;;;11.40;4.47;;;13.20;97.00;;;;;;5041124;28;20024;-61
2021/11/01 04:05:30;;;;;;;7.07;4.80;;;13.20;97.00;;;;;;5038546;28;20076;-60
2021/11/01 04:07:56;;;;;;;9.27;4.63;;;13.20;97.00;;;;;;5040231;28;20170;-61
2021/11/01 04:10:21;;;;;;;4.88;3.83;;;13.20;97.00;;;;;;5039854;28;20394;-61
2021/11/01 04:12:47;;;;;;;7.78;3.55;;;13.20;97.00;;;;;;5021809;28;20490;-61
2021/11/01 04:15:19;;;;;;;7.25;3.90;;;13.20;97.00;;;;;;5042434;28;20715;-61
2021/11/01 04:18:00;;;;;;;9.00;3.63;;;13.20;97.00;;;;;;5023900;28;20041;-61
2021/11/01 04:20:31;;;;;;;6.65;3.63;;;13.20;96.90;;;;;;5038979;28;20080;-61
2021/11/01 04:23:01;;;;;;;4.88;2.95;;;13.20;96.80;;;;;;5022318;28;20118;-61
2021/11/01 04:25:27;;;;;;;7.15;3.20;;;13.20;96.80;;;;;;5038938;28;20476;-61
2021/11/01 04:27:54;;;;;;;4.55;2.42;;;13.20;96.80;;;;;;5041353;28;20423;-61
2021/11/01 04:30:20;;;;;;;5.85;3.00;;;13.20;96.80;;;;;;5039832;28;20033;-61
2021/11/01 04:32:50;;;;;;;9.18;3.22;;;13.20;96.70;;;;;;5038921;28;20029;-61
2021/11/01 04:35:27;;;;;;;5.20;2.70;;;13.20;96.90;;;;;;5039771;28;20427;-61
2021/11/01 04:38:03;;;;;;;4.05;2.60;;;13.20;96.60;;;;;;5040009;28;20013;-61
2021/11/01 04:52:56;;;;;;;4.50;2.10;;;13.20;96.30;;;;;;5038262;28;20090;-61
2021/11/01 04:54:13;;;;;;;4.55;1.90;;;13.10;95.90;;;;;;5039848;28;20135;-61
2021/11/01 04:56:39;;;;;;;3.92;1.73;;;13.10;95.90;;;;;;5038541;28;20025;-61
2021/11/01 04:59:04;;;;;;;4.75;1.95;;;13.10;95.80;;;;;;5040910;28;20424;-61
2021/11/01 05:01:43;;;;;;;3.30;1.70;;;13.10;95.70;;;;;;5037605;28;20496;-61
2021/11/01 05:04:12;;;;;;;2.33;1.60;;;13.10;95.60;;;;;;5042507;28;20108;-61
2021/11/01 05:06:43;;;;;;;2.05;1.33;;;13.10;95.60;;;;;;5043940;28;20040;-61
2021/11/01 05:09:17;;;;;;;2.17;1.50;;;13.10;95.50;;;;;;5044345;28;20049;-61
2021/11/01 05:14:19;;;;;;;3.28;1.40;;;13.10;95.40;;;;;;5039709;28;20086;-61
2021/11/01 05:16:55;;;;;;;5.32;1.33;;;13.10;95.30;;;;;;5042880;28;20148;-61
2021/11/01 05:19:25;;;;;;;3.10;1.60;;;13.10;95.20;;;;;;5046909;28;20056;-61
2021/11/01 05:24:36;;;;;;;4.90;1.13;;;13.10;95.10;;;;;;5039249;28;20370;-61
2021/11/01 05:29:48;;;;;;;2.60;1.42;;;13.10;95.00;;;;;;5045906;28;20021;-61
2021/11/01 05:32:17;;;;;;;4.20;1.40;;;13.10;95.00;;;;;;5044134;28;20514;-61
2021/11/01 05:34:42;;;;;;;2.60;1.23;;;13.10;94.90;;;;;;5043961;28;20029;-61
2021/11/01 05:37:08;;;;;;;2.10;1.23;;;13.00;94.90;;;;;;5041928;28;20033;-60
2021/11/01 05:39:34;;;;;;;1.90;1.20;;;13.10;94.90;;;;;;5044241;28;20040;-61
2021/11/01 05:42:00;;;;;;;2.13;1.10;;;13.00;94.90;;;;;;5040614;28;20041;-60
2021/11/01 05:44:25;;;;;;;1.75;1.20;;;13.00;94.80;;;;;;5025770;28;20107;-60
2021/11/01 05:46:52;;;;;;;2.17;1.23;;;13.00;94.90;;;;;;5044203;28;20098;-60
2021/11/01 05:49:20;;;;;;;4.65;1.25;;;13.00;94.90;;;;;;5043441;28;20037;-60
2021/11/01 05:51:45;;;;;;;1.10;0.90;;;13.00;94.90;;;;;;5040708;28;20740;-60
2021/11/01 05:54:15;;;;;;;4.00;1.33;;;12.90;94.90;;;;;;5042373;28;20045;-61
2021/11/01 06:01:52;;;;;;;3.03;1.13;;;12.90;95.00;;;;;;5043395;28;20044;-61
2021/11/01 06:04:22;;;;;;;2.53;1.27;;;12.90;94.90;;;;;;5044142;28;20412;-60
2021/11/01 06:14:34;;;;;;;2.80;1.10;;;12.90;95.00;;;;;;5043365;28;20094;-61
2021/11/01 06:17:00;;;;;;;2.78;1.00;;;12.90;95.00;;;;;;5023895;28;20025;-60
2021/11/01 06:19:26;;;;;;;1.95;1.00;;;12.90;95.00;;;;;;5041966;28;20135;-61
2021/11/01 06:21:51;;;;;;;2.40;1.27;;;12.90;95.10;;;;;;5041127;28;20073;-61
2021/11/01 06:27:01;;;;;;;3.78;1.10;;;12.90;95.10;;;;;;5027525;28;20411;-60
2021/11/01 06:29:34;;;;;;;3.47;1.10;;;12.90;95.10;;;;;;5043829;28;21171;-61
2021/11/01 06:32:19;;;;;;;1.95;1.10;;;12.90;95.10;;;;;;5041331;28;20099;-61
2021/11/01 06:58:51;;;;;;;2.25;1.10;;;12.80;95.20;;;;;;5039946;28;20037;-60
2021/11/01 07:14:10;;;;;;;2.45;1.30;;;12.80;95.20;;;;;;5039923;28;20549;-61
2021/11/01 07:15:22;;;;;;;3.50;1.33;;;12.80;95.10;;;;;;5034698;28;20090;-62
2021/11/01 07:18:14;;;;;;;12.43;1.48;;;12.90;95.20;;;;;;5036201;28;20075;-61
2021/11/01 07:21:06;;;;;;;6.10;1.10;;;12.90;95.20;;;;;;5034062;28;20094;-60
2021/11/01 07:23:56;;;;;;;3.28;1.23;;;12.90;95.20;;;;;;5034068;28;20136;-61
2021/11/01 08:21:26;;;;;;;13.70;2.45;;;12.90;95.00;;;;;;5041886;28;20040;-61
2021/11/01 08:24:30;;;;;;;12.63;2.40;;;12.90;95.10;;;;;;5040952;28;20091;-61
2021/11/01 08:29:59;;;;;;;24.17;3.17;;;12.90;95.00;;;;;;5039369;28;20169;-61
2021/11/01 09:03:55;;;;;;;41.10;4.75;;;13.00;94.90;;;;;;5041280;28;20040;-61
2021/11/01 09:12:38;;;;;;;92.78;9.32;;;13.10;95.00;;;;;;5038632;28;20432;-60
2021/11/01 09:20:15;;;;;;;42.55;6.30;;;13.10;95.00;;;;;;5039219;28;20039;-61
2021/11/01 09:23:36;;;;;;;65.90;7.72;;;13.10;95.00;;;;;;5037993;28;20692;-61
2021/11/01 09:36:08;;;;;;;34.13;4.80;;;13.20;94.90;;;;;;5037515;28;20885;-61
2021/11/01 09:41:18;;;;;;;28.45;4.88;;;13.20;95.00;;;;;;5036869;28;20175;-61
2021/11/01 09:43:46;;;;;;;43.47;5.32;;;13.20;95.10;;;;;;5036542;28;20076;-61
2021/11/01 09:46:12;;;;;;;38.40;5.78;;;13.20;95.20;;;;;;5033702;28;20021;-61
2021/11/01 09:48:38;;;;;;;52.45;6.00;;;13.20;95.20;;;;;;5037181;28;20134;-61
2021/11/01 09:51:04;;;;;;;56.05;6.53;;;13.20;95.20;;;;;;5039017;28;20192;-60
2021/11/01 09:53:37;;;;;;;69.35;7.00;;;13.20;95.20;;;;;;5026238;28;20444;-61
2021/11/01 10:01:15;;;;;;;87.70;9.98;;;13.30;95.20;;;;;;5034058;28;20090;-61
2021/11/01 10:03:45;;;;;;;49.20;6.97;;;13.30;95.20;;;;;;5021148;28;20109;-62
2021/11/01 10:06:30;;;;;;;48.58;7.28;;;13.30;95.10;;;;;;5026536;28;20029;-60
2021/11/01 10:09:00;;;;;;;80.35;8.05;;;13.40;95.00;;;;;;5039127;28;20021;-61
2021/11/01 10:11:28;;;;;;;75.07;8.77;;;13.40;95.00;;;;;;5024907;28;20053;-60
2021/11/01 10:13:55;;;;;;;73.60;8.88;;;13.50;94.90;;;;;;5033611;28;20037;-60
2021/11/01 10:19:14;;;;;;;112.75;12.25;;;13.40;95.00;;;;;;5040493;28;20047;-61
2021/11/01 10:21:50;;;;;;;98.05;11.60;;;13.50;95.00;;;;;;5039666;28;20025;-61
2021/11/01 10:24:22;;;;;;;82.80;10.40;;;13.50;94.90;;;;;;5022323;28;20025;-60
2021/11/01 10:26:47;;;;;;;82.28;10.05;;;13.50;94.80;;;;;;5006733;28;20499;-60
2021/11/01 10:29:13;;;;;;;114.93;12.52;;;13.50;94.80;;;;;;5036272;28;20130;-61
2021/11/01 10:31:43;;;;;;;124.72;14.10;;;13.50;94.90;;;;;;5020929;28;20093;-61
2021/11/01 10:34:10;;;;;;;114.63;11.18;;;13.50;95.00;;;;;;5036317;28;20036;-61
2021/11/01 10:36:40;;;;;;;75.43;11.40;;;13.60;95.00;;;;;;5017922;28;20672;-62
2021/11/01 10:39:11;;;;;;;109.50;13.73;;;13.60;94.90;;;;;;5035739;28;20040;-61
2021/11/01 11:14:53;;;;;;;130.57;14.75;;;14.10;94.70;;;;;;5026597;28;20028;-63
2021/11/01 11:17:29;;;;;;;120.40;12.93;;;13.70;94.60;;;;;;5018413;28;20021;-63
2021/11/01 11:23:32;;;;;;;133.60;16.48;;;13.80;94.40;;;;;;5013560;28;20055;-65
2021/11/01 11:33:53;;;;;;;101.13;13.07;;;13.80;94.20;;;;;;5036148;28;20126;-61
2021/11/01 11:40:35;;;;;;;75.72;11.52;;;13.80;94.00;;;;;;5037634;28;20116;-60
2021/11/01 11:50:36;;;;;;;134.00;14.65;;;13.80;94.20;;;;;;5035342;28;20179;-61
2021/11/01 11:53:15;;;;;;;113.75;13.15;;;13.80;94.20;;;;;;5036207;28;20557;-61
2021/11/01 11:55:41;;;;;;;79.55;12.75;;;13.80;94.10;;;;;;5038570;28;20037;-63
2021/11/01 11:58:10;;;;;;;86.70;10.68;;;13.90;94.10;;;;;;5028378;28;20056;-62
2021/11/01 12:00:36;;;;;;;81.13;10.38;;;13.80;94.00;;;;;;5010283;28;20033;-62
2021/11/01 12:03:15;;;;;;;80.57;11.05;;;13.90;94.00;;;;;;5015895;28;20064;-62
2021/11/01 12:05:49;;;;;;;78.97;10.63;;;13.80;93.90;;;;;;5013833;28;20029;-62
2021/11/01 12:08:25;;;;;;;89.60;11.20;;;13.90;93.90;;;;;;5028947;28;20059;-62
2021/11/01 12:18:54;;;;;;;103.90;13.27;;;13.90;93.70;;;;;;5018596;28;20483;-63
2021/11/01 12:21:21;;;;;;;125.18;15.57;;;13.90;93.90;;;;;;5034257;28;20788;-63
2021/11/01 12:23:46;;;;;;;148.52;15.63;;;13.90;94.00;;;;;;5035567;28;20049;-62
2021/11/01 12:26:13;;;;;;;121.53;15.30;;;13.90;93.90;;;;;;5033145;28;20090;-60
2021/11/01 12:28:40;;;;;;;115.80;13.75;;;14.00;94.00;;;;;;5036383;28;20040;-61
2021/11/01 12:31:09;;;;;;;101.72;12.57;;;13.90;94.00;;;;;;5033185;28;20415;-62
2021/11/01 12:33:35;;;;;;;108.18;13.32;;;13.90;94.10;;;;;;5019216;28;20035;-62
2021/11/01 12:36:04;;;;;;;128.80;14.50;;;14.00;94.00;;;;;;5017779;28;20037;-63
2021/11/01 12:38:42;;;;;;;86.28;11.60;;;14.00;94.00;;;;;;5030991;28;20029;-60
2021/11/01 12:42:04;;;;;;;91.63;10.00;;;14.00;93.90;;;;;;5035692;28;20021;-60
2021/11/01 12:58:06;;;;;;;58.43;9.50;;;13.90;93.90;;;;;;4958619;28;20586;-60
2021/11/01 13:00:43;;;;;;;76.47;9.15;;;14.00;93.90;;;;;;4982592;28;20148;-60
2021/11/01 13:03:13;;;;;;;71.85;9.45;;;14.00;94.00;;;;;;5029929;28;20021;-60
2021/11/01 13:05:43;;;;;;;81.70;9.85;;;14.00;94.00;;;;;;5031213;28;20587;-60
2021/11/01 13:08:11;;;;;;;62.38;9.55;;;14.00;93.90;;;;;;5029857;28;20675;-63
2021/11/01 13:18:18;;;;;;;74.53;8.45;;;14.00;94.10;;;;;;5033286;28;20039;-60
2021/11/01 13:20:53;;;;;;;69.45;7.93;;;14.10;94.30;;;;;;5032825;28;20468;-61
2021/11/01 13:23:19;;;;;;;70.37;8.07;;;14.00;94.50;;;;;;5034694;28;20053;-61
2021/11/01 13:25:54;;;;;;;118.88;11.85;;;14.10;94.20;;;;;;5030552;28;20590;-61
2021/11/01 13:36:45;;;;;;;68.05;8.57;;;14.20;94.20;;;;;;5039852;28;20163;-60
2021/11/01 13:39:21;;;;;;;110.97;12.05;;;14.20;94.10;;;;;;5034406;28;20074;-60
2021/11/01 13:41:47;;;;;;;57.03;7.90;;;14.20;94.00;;;;;;5001019;28;20037;-60
2021/11/01 13:44:20;;;;;;;103.97;9.70;;;14.20;93.70;;;;;;5014411;28;20064;-60
2021/11/01 13:46:47;;;;;;;70.15;8.82;;;14.20;93.60;;;;;;5034558;28;20035;-61
2021/11/01 13:49:14;;;;;;;105.97;9.52;;;14.30;93.50;;;;;;5016797;28;20139;-61
2021/11/01 13:51:39;;;;;;;81.82;9.95;;;14.30;93.40;;;;;;5035596;28;20708;-60
2021/11/01 13:57:03;;;;;;;137.18;14.18;;;14.30;93.40;;;;;;5021266;28;20950;-60
2021/11/01 14:31:35;;;;;;;203.43;20.42;;;14.50;93.20;;;;;;5032641;28;20136;-60
2021/11/01 14:54:52;;;;;;;149.65;14.27;;;14.60;93.10;;;;;;5028529;28;20089;-60
2021/11/01 14:55:16;;;;;;;140.15;14.00;;;14.60;93.10;;;;;;5033968;28;20111;-61
2021/11/01 14:57:18;;;;;;;173.23;17.45;;;14.70;92.90;;;;;;5034074;28;20091;-61
2021/11/01 15:07:52;;;;;;;166.38;18.67;;;14.80;92.90;;;;;;5034603;28;20029;-61
2021/11/01 15:15:55;;;;;;;174.70;17.05;;;14.80;92.90;;;;;;5034538;28;20035;-60
2021/11/01 15:18:30;;;;;;;158.75;16.92;;;14.80;92.90;;;;;;5026411;28;20037;-61
2021/11/01 15:23:41;;;;;;;210.63;20.77;;;14.80;92.80;;;;;;5037842;28;20156;-63
2021/11/01 15:33:49;;;;;;;255.07;24.40;;;14.80;92.80;;;;;;5033200;28;20056;-61
2021/11/01 15:36:41;;;;;;;208.18;20.35;;;14.80;92.80;;;;;;5031469;28;20053;-64
2021/11/01 16:19:26;;;;;;;283.17;29.10;;;14.80;93.00;;;;;;5022262;28;20029;-61
2021/11/01 16:21:51;;;;;;;210.52;23.50;;;14.80;93.00;;;;;;5033935;28;20337;-61
2021/11/01 16:24:17;;;;;;;212.73;22.55;;;14.80;93.00;;;;;;5039778;28;20096;-61
2021/11/01 16:26:43;;;;;;;183.25;17.40;;;14.80;92.90;;;;;;5036504;28;20053;-61
2021/11/01 16:29:11;;;;;;;179.95;19.45;;;14.80;92.90;;;;;;5033796;28;20030;-61
2021/11/01 16:31:45;;;;;;;196.40;20.00;;;14.70;92.80;;;;;;5034774;28;20035;-61
2021/11/01 16:34:32;;;;;;;170.52;19.20;;;14.80;92.70;;;;;;5036053;28;20447;-61
2021/11/01 16:37:13;;;;;;;211.13;22.58;;;14.80;92.80;;;;;;5031775;28;20025;-61
2021/11/01 16:39:47;;;;;;;215.73;22.40;;;14.70;92.90;;;;;;5018100;28;20075;-61
2021/11/01 16:42:21;;;;;;;182.10;22.83;;;14.60;92.90;;;;;;5027728;28;20053;-62
2021/11/01 16:44:47;;;;;;;202.20;24.23;;;14.80;93.00;;;;;;5035153;28;20263;-61
2021/11/01 16:47:14;;;;;;;196.23;23.35;;;14.80;92.90;;;;;;5036144;28;20505;-61
2021/11/01 16:49:40;;;;;;;233.63;23.60;;;14.80;92.90;;;;;;5033246;28;20021;-61
2021/11/01 16:52:15;;;;;;;225.23;24.30;;;14.80;92.90;;;;;;5002551;28;21703;-61
2021/11/01 16:54:51;;;;;;;213.07;23.70;;;14.80;92.90;;;;;;5018726;28;20059;-61
2021/11/01 16:57:30;;;;;;;218.10;22.20;;;14.80;93.00;;;;;;5034671;28;20025;-62
2021/11/01 17:10:57;;;;;;;241.10;23.55;;;14.80;93.30;;;;;;5037640;28;20078;-61
2021/11/01 17:24:14;;;;;;;274.63;30.63;;;14.80;93.60;;;;;;5039656;28;20539;-61
2021/11/01 17:35:12;;;;;;;266.52;27.80;;;14.80;93.60;;;;;;5041931;28;20039;-61
2021/11/01 18:38:01;;;;;;;264.23;28.52;;;14.70;94.10;;;;;;5027469;28;20036;-61
2021/11/01 18:51:06;;;;;;;297.83;30.52;;;14.70;94.20;;;;;;5027698;28;20897;-60
2021/11/01 18:53:37;;;;;;;357.00;35.00;;;14.70;94.30;;;;;;5017795;28;20540;-61
2021/11/01 18:56:04;;;;;;;285.42;31.80;;;14.70;94.30;;;;;;5040179;28;20017;-61
2021/11/01 18:58:31;;;;;;;326.15;34.63;;;14.70;94.20;;;;;;5046577;28;20146;-60
2021/11/01 19:00:58;;;;;;;279.23;32.15;;;14.70;94.30;;;;;;5040908;28;20270;-60
2021/11/01 19:03:26;;;;;;;274.17;28.90;;;14.70;94.30;;;;;;5018296;28;20056;-60
2021/11/01 19:12:08;;;;;;;298.42;34.95;;;14.70;94.40;;;;;;5043510;28;20040;-62
2021/11/01 19:15:13;;;;;;;303.85;28.02;;;14.70;94.40;;;;;;5030497;28;20503;-62
2021/11/01 20:04:26;;;;;;;283.58;31.70;;;14.60;94.20;;;;;;5041733;28;20048;-60
2021/11/01 20:07:03;;;;;;;263.50;28.55;;;14.60;94.20;;;;;;5042062;28;20040;-62
2021/11/01 21:26:41;;;;;;;241.30;31.20;;;14.10;93.20;;;;;;5037979;28;20064;-60
2021/11/01 21:29:07;;;;;;;311.40;30.98;;;14.10;93.30;;;;;;5041023;28;20492;-61
2021/11/01 21:31:32;;;;;;;257.23;32.17;;;14.10;93.10;;;;;;5037796;28;20045;-61
2021/11/01 21:34:00;;;;;;;262.60;32.47;;;14.10;93.40;;;;;;5042823;28;20048;-61
2021/11/01 21:36:26;;;;;;;300.88;33.10;;;14.10;93.30;;;;;;5042070;28;20029;-61
2021/11/01 21:38:56;;;;;;;246.98;29.27;;;14.10;93.30;;;;;;5038944;28;20045;-60
2021/11/01 21:41:22;;;;;;;307.98;33.50;;;14.10;93.10;;;;;;5023587;28;20036;-61
2021/11/01 21:43:48;;;;;;;362.73;37.10;;;14.00;93.20;;;;;;5026072;28;20092;-61
2021/11/01 21:46:14;;;;;;;263.77;32.58;;;14.00;93.30;;;;;;5027112;28;20025;-61
2021/11/01 21:48:40;;;;;;;241.85;30.50;;;14.00;93.30;;;;;;5044386;28;20027;-61
2021/11/01 21:51:05;;;;;;;652.03;76.68;;;14.00;93.30;;;;;;5044858;28;21011;-60
2021/11/01 21:53:32;;;;;;;306.50;37.42;;;14.00;93.20;;;;;;5024659;28;20048;-60
2021/11/01 21:55:57;;;;;;;225.27;29.92;;;14.00;93.30;;;;;;5042684;28;20056;-61
2021/11/01 21:59:05;;;;;;;242.90;28.63;;;14.00;93.30;;;;;;5044426;28;20071;-61
2021/11/01 22:20:04;;;;;;;207.77;25.45;;;13.80;93.20;;;;;;5047016;28;20025;-61
2021/11/01 22:25:22;;;;;;;155.35;21.20;;;13.80;93.20;;;;;;5017855;28;20060;-61
2021/11/01 22:58:56;;;;;;;162.45;23.08;;;13.60;93.10;;;;;;5029193;28;20476;-61
2021/11/01 23:01:24;;;;;;;148.80;23.45;;;13.50;93.10;;;;;;5048068;28;20063;-62
2021/11/01 23:33:36;;;;;;;116.13;17.65;;;13.40;92.70;;;;;;5050338;28;20122;-61
2021/11/01 23:36:02;;;;;;;127.70;17.98;;;13.40;92.70;;;;;;5046409;28;20135;-61
2021/11/01 23:38:27;;;;;;;124.93;19.63;;;13.30;92.70;;;;;;5030279;28;20070;-61
2021/11/01 23:40:53;;;;;;;126.20;18.38;;;13.30;92.70;;;;;;5029686;28;20040;-61
2021/11/01 23:43:19;;;;;;;128.48;17.95;;;13.30;92.70;;;;;;5047380;28;20570;-61
2021/11/01 23:45:45;;;;;;;113.35;17.33;;;13.30;92.60;;;;;;5048781;28;20029;-61
2021/11/01 23:48:11;;;;;;;131.35;19.80;;;13.30;92.60;;;;;;5046331;28;20086;-61
2021/11/01 23:50:37;;;;;;;93.35;16.02;;;13.30;92.60;;;;;;5037843;28;20398;-62
2021/11/01 23:53:06;;;;;;;108.00;15.30;;;13.30;92.50;;;;;;5045573;28;20189;-61
2021/11/01 23:55:31;;;;;;;86.20;13.13;;;13.30;92.50;;;;;;5030521;28;20025;-60
2021/11/01 23:57:57;;;;;;;81.65;14.20;;;13.20;92.40;;;;;;5047429;28;20025;-61
